Latest Weather Observations for Lameroo AWS

IDS60801

Issued at 7:31 am CDT Wednesday 22 February 2017 (issued every 30 minutes, with the page automatically refreshed every 10 minutes)

About weather observations | Map of weather stations | Latest weather observations for SA | Other Formats
Station Details ID: 025562 Name: AUSTIN PLAINS Lat: -35.38 Lon: 140.54 Height: 110.08 m
Data from the previous 72 hours. | See also: Recent months at Lameroo AWS
Date/Time
CDT
Temp
°C
App
Temp
°C
Dew
Point
°C
Rel
Hum
%
Delta-T
°C
Wind Press
QNH
hPa
Press
MSL
hPa
Rain since
9am
mm
Dir  Spd
km/h
Gust
km/h
Spd
kts
Gust
kts
22/07:30am 16.2 10.7 0.3 34 6.9 NNE 19 22 10 12 1011.8 1011.4 0.0
22/07:00am 15.8 9.7 0.4 35 6.7 NNE 22 28 12 15 1011.5 1011.1 0.0
22/06:30am 15.5 9.5 0.9 37 6.4 NE 22 26 12 14 1011.2 1010.8 0.0
22/06:00am 14.7 9.1 0.9 39 6.0 NE 20 24 11 13 1011.1 1010.7 0.0
22/05:30am 15.9 10.4 0.5 35 6.7 NNE 19 24 10 13 1011.3 1010.9 0.0
22/05:00am 15.9 9.9 0.9 36 6.5 NE 22 24 12 13 1011.0 1010.6 0.0
22/04:30am 16.4 10.7 0.5 34 6.9 NE 20 26 11 14 1011.2 1010.8 0.0
22/04:00am 17.0 11.6 1.0 34 7.1 NE 19 24 10 13 1011.4 1011.0 0.0
22/03:30am 16.4 10.8 1.3 36 6.7 NE 20 24 11 13 1011.6 1011.2 0.0
22/03:00am 15.7 10.7 1.4 38 6.3 NE 17 20 9 11 1012.0 1011.6 0.0
22/02:30am 16.5 11.1 1.0 35 6.8 NE 19 20 10 11 1012.3 1011.9 0.0
22/02:00am 16.8 11.4 1.3 35 6.9 NE 19 20 10 11 1012.7 1012.3 0.0
22/01:30am 14.6 9.6 1.2 40 5.8 NE 17 19 9 10 1013.1 1012.7 0.0
22/01:00am 17.4 12.0 1.0 33 7.3 NE 19 22 10 12 1013.6 1013.2 0.0
22/12:30am 18.8 13.2 0.9 30 8.0 NNE 20 24 11 13 1014.1 1013.6 0.0
22/12:00am 19.3 14.4 1.8 31 8.0 NNE 17 20 9 11 1014.4 1013.9 0.0
 
Date/Time
CDT
Temp
°C
App
Temp
°C
Dew
Point
°C
Rel
Hum
%
Delta-T
°C
Wind Press
QNH
hPa
Press
MSL
hPa
Rain since
9am
mm
Dir  Spd
km/h
Gust
km/h
Spd
kts
Gust
kts
21/11:30pm 15.8 11.4 2.9 42 5.9 NNE 15 17 8 9 1014.7 1014.2 0.0
21/11:00pm 15.7 10.9 2.8 42 5.9 NE 17 19 9 10 1015.0 1014.5 0.0
21/10:30pm 17.4 13.3 2.2 36 6.9 NNE 13 15 7 8 1015.3 1014.8 0.0
21/10:00pm 18.5 14.5 2.8 35 7.3 NNE 13 15 7 8 1015.5 1015.0 0.0
21/09:30pm 19.7 16.0 2.6 32 8.0 NNE 11 13 6 7 1015.3 1014.8 0.0
21/09:00pm 20.6 16.9 2.4 30 8.5 NNE 11 13 6 7 1015.0 1014.5 0.0
21/08:30pm 21.8 18.1 2.5 28 9.1 NNE 11 13 6 7 1014.7 1014.2 0.0
21/08:00pm 22.8 18.3 2.3 26 9.7 NNE 15 17 8 9 1014.4 1013.9 0.0
21/07:30pm 26.4 22.6 1.7 20 11.9 N 11 15 6 8 1014.4 1013.9 0.0
21/07:00pm 27.7 23.0 1.2 18 12.8 N 15 22 8 12 1014.2 1013.7 0.0
21/06:30pm 28.5 23.6 1.9 18 13.1 N 17 24 9 13 1014.2 1013.7 0.0
21/06:00pm 28.7 24.1 1.3 17 13.3 NNE 15 26 8 14 1014.3 1013.8 0.0
21/05:30pm 28.5 24.2 1.1 17 13.3 NE 13 22 7 12 1014.6 1014.1 0.0
21/05:00pm 28.4 24.2 1.8 18 13.0 NNE 13 20 7 11 1014.9 1014.4 0.0
21/04:30pm 28.9 24.4 2.2 18 13.2 NNE 15 28 8 15 1015.4 1014.9 0.0
21/04:00pm 27.9 23.8 2.2 19 12.6 N 13 24 7 13 1015.8 1015.3 0.0
21/03:30pm 28.1 25.1 2.3 19 12.7 NNW 7 22 4 12 1016.3 1015.8 0.0
21/03:00pm 27.1 23.4 2.2 20 12.2 N 11 20 6 11 1016.6 1016.2 0.0
21/02:30pm 27.4 23.0 2.5 20 12.2 N 15 24 8 13 1017.0 1016.6 0.0
21/02:00pm 26.9 23.8 3.4 22 11.7 N 9 20 5 11 1017.6 1017.2 0.0
21/01:30pm 26.3 23.9 4.1 24 11.1 NE 6 19 3 10 1018.1 1017.7 0.0
21/01:00pm 24.4 20.8 3.1 25 10.4 NNW 11 19 6 10 1018.4 1018.0 0.0
21/12:30pm 24.5 20.6 3.2 25 10.4 NNW 13 24 7 13 1018.9 1018.5 0.0
21/12:00pm 24.1 20.3 4.0 27 9.9 N 13 22 7 12 1019.1 1018.7 0.0
21/11:30am 22.4 18.5 3.5 29 9.1 NNE 13 26 7 14 1019.6 1019.2 0.0
21/11:00am 21.8 17.2 3.5 30 8.8 NNE 17 26 9 14 1019.9 1019.5 0.0
21/10:30am 21.3 16.3 4.8 34 8.1 NE 20 26 11 14 1020.3 1019.9 0.0
21/10:00am 20.1 15.3 5.4 38 7.3 NE 20 28 11 15 1020.4 1020.0 0.0
21/09:30am 18.1 12.9 5.3 43 6.2 NE 22 28 12 15 1020.5 1020.1 0.0
21/09:00am 16.7 10.4 5.6 48 5.4 ENE 28 33 15 18 1020.3 1019.9 0.0
21/08:30am 14.7 9.2 6.0 56 4.2 ENE 24 30 13 16 1020.3 1019.9 0.0
21/08:00am 12.0 7.9 6.3 68 2.7 ENE 17 22 9 12 1020.1 1019.7 0.0
21/07:30am 9.7 5.5 5.7 76 1.8 E 17 20 9 11 1019.7 1019.3 0.0
21/07:00am 8.3 4.4 5.2 81 1.4 E 15 17 8 9 1019.4 1019.0 0.0
21/06:30am 7.8 4.2 4.9 82 1.3 E 13 15 7 8 1019.0 1018.6 0.0
21/06:00am 7.3 3.7 4.8 84 1.1 E 13 15 7 8 1019.0 1018.6 0.0
21/05:30am 7.4 4.5 4.5 82 1.3 ESE 9 11 5 6 1018.8 1018.4 0.0
21/05:00am 7.8 4.6 4.9 82 1.3 ESE 11 13 6 7 1018.7 1018.3 0.0
21/04:30am 7.9 4.3 5.2 83 1.2 ESE 13 13 7 7 1018.5 1018.1 0.0
21/04:00am 7.6 3.9 4.7 82 1.3 SSE 13 13 7 7 1018.6 1018.2 0.0
21/03:30am 7.6 4.3 4.6 81 1.3 SSE 11 11 6 6 1018.8 1018.4 0.0
21/03:00am 8.1 4.5 5.0 81 1.4 S 13 15 7 8 1019.0 1018.6 0.0
21/02:30am 8.2 4.6 4.8 79 1.5 S 13 15 7 8 1018.7 1018.3 0.0
21/02:00am 9.0 5.5 5.4 78 1.6 SSE 13 15 7 8 1018.6 1018.2 0.0
21/01:30am 9.2 5.7 5.4 77 1.7 S 13 15 7 8 1019.0 1018.6 0.0
21/01:00am 9.6 5.7 5.4 75 1.9 S 15 17 8 9 1019.3 1018.9 0.0
21/12:30am 9.6 5.6 5.0 73 2.1 S 15 15 8 8 1019.5 1019.1 0.0
21/12:00am 10.2 5.9 5.4 72 2.2 SSW 17 17 9 9 1019.5 1019.1 0.0
 
Date/Time
CDT
Temp
°C
App
Temp
°C
Dew
Point
°C
Rel
Hum
%
Delta-T
°C
Wind Press
QNH
hPa
Press
MSL
hPa
Rain since
9am
mm
Dir  Spd
km/h
Gust
km/h
Spd
kts
Gust
kts
20/11:30pm 9.4 5.7 4.6 72 2.1 SSW 13 15 7 8 1019.6 1019.2 0.0
20/11:00pm 10.2 6.5 4.6 68 2.5 SSW 13 13 7 7 1019.5 1019.1 0.0
20/10:30pm 11.4 7.7 4.4 62 3.2 SSW 13 15 7 8 1019.4 1019.0 0.0
20/10:00pm 11.4 7.7 4.2 61 3.2 SW 13 15 7 8 1019.3 1018.9 0.0
20/09:30pm 11.5 7.7 4.0 60 3.4 SW 13 15 7 8 1019.0 1018.6 0.0
20/09:00pm 12.7 8.9 3.9 55 4.0 SW 13 15 7 8 1018.6 1018.2 0.0
20/08:30pm 14.3 10.4 3.5 48 4.9 SW 13 17 7 9 1018.3 1017.9 0.0
20/08:00pm 16.8 12.2 3.5 41 6.2 SW 17 20 9 11 1018.0 1017.6 0.0
20/07:30pm 18.6 13.5 3.3 36 7.2 SSW 19 26 10 14 1017.5 1017.1 0.0
20/07:00pm 20.2 15.3 3.9 34 7.8 SW 19 28 10 15 1016.9 1016.5 0.0
20/06:30pm 20.7 15.8 3.9 33 8.1 SW 19 28 10 15 1016.7 1016.3 0.0
20/06:00pm 20.8 17.0 4.0 33 8.1 SSW 13 20 7 11 1016.4 1015.9 0.0
20/05:30pm 21.3 16.4 4.0 32 8.4 SW 19 32 10 17 1016.3 1015.8 0.0
20/05:00pm 21.6 16.1 3.8 31 8.6 SSW 22 32 12 17 1016.2 1015.7 0.0
20/04:30pm 22.3 17.7 3.9 30 9.0 SSW 17 28 9 15 1016.2 1015.7 0.0
20/04:00pm 22.5 17.6 4.1 30 9.0 SSW 19 32 10 17 1016.3 1015.8 0.0
20/03:30pm 20.9 16.4 4.0 33 8.2 SSW 17 50 9 27 1016.4 1015.9 0.0
20/03:00pm 21.0 16.4 3.7 32 8.3 SSW 17 30 9 16 1016.6 1016.2 0.0
20/02:30pm 20.3 15.4 3.9 34 7.9 SSW 19 28 10 15 1016.8 1016.4 0.0
20/02:00pm 20.5 16.8 4.5 35 7.8 SSW 13 26 7 14 1017.0 1016.6 0.0
20/01:30pm 20.3 15.7 3.5 33 8.0 WSW 17 30 9 16 1017.2 1016.8 0.0
20/01:00pm 18.8 13.7 3.0 35 7.4 WSW 19 32 10 17 1017.4 1017.0 0.0
20/12:30pm 18.5 14.0 4.3 39 6.8 WSW 17 28 9 15 1017.7 1017.3 0.0
20/12:00pm 18.6 14.6 5.1 41 6.6 SW 15 33 8 18 1017.8 1017.4 0.0
20/11:30am 17.0 13.6 5.9 48 5.4 SW 13 22 7 12 1018.1 1017.7 0.0
20/11:00am 17.7 14.0 6.3 47 5.6 SW 15 20 8 11 1018.3 1017.9 0.0
20/10:30am 16.8 13.0 5.7 48 5.4 SSW 15 24 8 13 1018.6 1018.2 0.0
20/10:00am 15.7 13.1 6.2 53 4.6 SW 9 17 5 9 1018.7 1018.3 0.0
20/09:30am 14.1 12.2 7.6 65 3.2 SW 7 9 4 5 1018.6 1018.2 0.0
20/09:00am 13.0 11.3 7.5 69 2.7 SW 6 9 3 5 1018.5 1018.1 0.4
20/08:30am 11.5 9.5 7.2 75 2.1 WSW 7 9 4 5 1018.2 1017.8 0.4
20/08:00am 9.5 7.5 6.9 84 1.2 W 7 11 4 6 1017.9 1017.5 0.4
20/07:30am 7.7 5.1 6.3 91 0.6 W 9 11 5 6 1017.6 1017.2 0.4
20/07:00am 5.1 1.6 3.6 90 0.6 W 11 13 6 7 1017.3 1016.9 0.4
20/06:30am 5.4 2.3 3.7 89 0.7 W 9 11 5 6 1016.9 1016.5 0.4
20/06:00am 7.7 5.0 5.5 86 1.0 SSW 9 9 5 5 1016.5 1016.1 0.4
20/05:30am 6.8 4.0 5.1 89 0.8 WSW 9 9 5 5 1016.2 1015.7 0.4
20/05:00am 6.1 2.8 4.3 88 0.8 W 11 11 6 6 1016.0 1015.5 0.4
20/04:30am 6.3 3.0 4.5 88 0.8 W 11 13 6 7 1016.1 1015.6 0.4
20/04:00am 6.5 3.3 2.9 78 1.5 SSW 9 13 5 7 1016.0 1015.5 0.4
20/03:30am 7.6 4.3 4.7 82 1.3 S 11 13 6 7 1015.7 1015.2 0.4
20/03:00am 7.7 5.4 5.5 86 1.0 SW 7 7 4 4 1015.8 1015.3 0.4
20/02:30am 8.2 5.5 5.5 83 1.2 SSW 9 9 5 5 1015.6 1015.1 0.4
20/02:00am 7.8 5.0 5.3 84 1.1 SW 9 9 5 5 1015.7 1015.2 0.4
20/01:30am 7.9 4.6 4.7 80 1.4 SSW 11 11 6 6 1015.7 1015.2 0.4
20/01:00am 9.2 6.2 5.8 79 1.6 S 11 11 6 6 1016.0 1015.5 0.4
20/12:30am 9.7 6.7 6.2 79 1.6 SSW 11 13 6 7 1016.3 1015.8 0.4
20/12:00am 10.2 7.3 6.5 78 1.7 SW 11 13 6 7 1015.9 1015.4 0.4
 
Date/Time
CDT
Temp
°C
App
Temp
°C
Dew
Point
°C
Rel
Hum
%
Delta-T
°C
Wind Press
QNH
hPa
Press
MSL
hPa
Rain since
9am
mm
Dir  Spd
km/h
Gust
km/h
Spd
kts
Gust
kts
19/11:30pm 11.8 9.1 7.3 74 2.2 WSW 11 13 6 7 1016.1 1015.6 0.4
19/11:00pm 12.7 9.6 7.4 70 2.6 SW 13 19 7 10 1016.1 1015.6 0.4
19/10:30pm 13.6 9.4 7.6 67 3.0 SSW 19 24 10 13 1015.9 1015.4 0.4
19/10:00pm 13.8 10.1 8.0 68 2.9 SSW 17 26 9 14 1016.0 1015.5 0.4
19/09:30pm 14.3 10.1 8.3 67 3.0 SW 20 26 11 14 1015.6 1015.1 0.4
19/09:00pm 14.1 10.2 8.7 70 2.7 SW 19 24 10 13 1015.3 1014.8 0.4
19/08:30pm 13.9 9.8 8.5 70 2.7 SW 20 26 11 14 1015.1 1014.6 0.4
19/08:00pm 14.8 9.4 8.1 64 3.4 SW 26 37 14 20 1014.7 1014.2 0.4
19/07:30pm 15.7 10.0 8.4 62 3.7 WSW 28 37 15 20 1014.4 1013.9 0.4
19/07:00pm 16.2 9.3 7.4 56 4.4 SW 33 46 18 25 1014.1 1013.6 0.4
19/06:30pm 17.4 10.6 7.5 52 5.0 SW 33 43 18 23 1013.8 1013.3 0.4
19/06:00pm 15.4 7.4 9.1 66 3.2 SW 41 63 22 34 1014.0 1013.5 0.4
19/05:54pm 17.1 9.7 8.3 56 4.5 SW 37 56 20 30 1013.6 1013.2 0.4
19/05:30pm 18.6 11.6 8.3 51 5.3 SW 35 48 19 26 1013.5 1013.1 0.4
19/05:00pm 19.5 12.5 8.5 49 5.8 SSW 35 48 19 26 1013.3 1012.9 0.4
19/04:39pm 19.8 11.9 6.2 41 6.8 SW 37 56 20 30 1013.0 1012.6 0.4
19/04:30pm 19.5 11.7 6.6 43 6.5 SW 37 54 20 29 1013.3 1012.9 0.4
19/04:00pm 20.0 12.1 7.7 45 6.4 SW 39 56 21 30 1013.3 1012.9 0.4
19/03:57pm 19.6 12.4 7.7 46 6.1 SW 35 56 19 30 1013.2 1012.8 0.4
19/03:30pm 18.6 10.3 7.7 49 5.6 SW 41 56 22 30 1013.5 1013.1 0.4
19/03:05pm 21.5 14.2 7.3 40 7.3 SW 35 56 19 30 1013.4 1013.0 0.4
19/03:00pm 19.7 11.6 7.1 44 6.4 SW 39 52 21 28 1013.5 1013.1 0.4
19/02:47pm 20.9 13.8 7.9 43 6.8 SW 35 56 19 30 1013.4 1013.0 0.4
19/02:30pm 18.4 11.2 7.5 49 5.6 SW 35 46 19 25 1013.8 1013.3 0.4
19/02:15pm 21.3 14.4 8.9 45 6.6 SW 35 54 19 29 1013.8 1013.3 0.4
19/02:00pm 19.5 12.5 8.5 49 5.8 SW 35 48 19 26 1014.0 1013.5 0.4
19/01:38pm 20.0 12.3 8.7 48 5.9 SW 39 57 21 31 1013.8 1013.3 0.4
19/01:30pm 17.9 11.7 10.0 60 4.2 SW 33 44 18 24 1014.0 1013.5 0.4
19/01:00pm 17.3 11.5 9.5 60 4.1 WSW 30 43 16 23 1014.1 1013.6 0.4
19/12:30pm 15.1 11.6 12.1 82 1.6 WSW 22 30 12 16 1014.8 1014.3 0.4
19/12:00pm 18.9 13.0 7.4 47 5.9 SW 28 39 15 21 1014.9 1014.4 0.0
19/11:30am 16.6 9.0 7.5 55 4.6 SW 37 50 20 27 1015.4 1014.9 0.0
19/11:00am 15.4 9.0 9.3 67 3.2 WSW 33 43 18 23 1015.5 1015.0 0.0
19/10:30am 17.9 13.2 7.6 51 5.2 WSW 22 32 12 17 1015.4 1014.9 0.0
19/10:00am 17.1 12.7 8.8 58 4.3 WSW 22 30 12 16 1015.5 1015.0 0.0
19/09:30am 15.9 12.1 9.1 64 3.5 W 19 32 10 17 1015.6 1015.1 0.0
19/09:00am 13.7 9.9 9.2 74 2.3 WSW 19 30 10 16 1015.5 1015.0 0.0
19/08:30am 14.1 10.6 10.3 78 2.0 W 19 22 10 12 1015.5 1015.0 0.0
19/08:00am 12.6 9.0 9.8 83 1.4 WNW 19 22 10 12 1015.5 1015.0 0.0

Other Formats:

Comma delimited format used in spreadsheet applications
http://www.bom.gov.au/fwo/IDS60801/IDS60801.94690.axf

JavaScript Object Notation format (JSON) in row-major order
http://www.bom.gov.au/fwo/IDS60801/IDS60801.94690.json